sensor_id;sensor_type;location;lat;lon;timestamp;pressure;altitude;pressure_sealevel;temperature;humidity
15308;BME280;7755;52.208;6.964;2022-09-03T00:02:37;100887.69;;;18.13;49.39
15308;BME280;7755;52.208;6.964;2022-09-03T00:06:42;100881.72;;;18.01;49.60
15308;BME280;7755;52.208;6.964;2022-09-03T00:10:51;100883.13;;;17.98;49.75
15308;BME280;7755;52.208;6.964;2022-09-03T00:14:59;100885.34;;;17.96;49.80
15308;BME280;7755;52.208;6.964;2022-09-03T00:19:06;100891.47;;;17.88;50.07
15308;BME280;7755;52.208;6.964;2022-09-03T00:23:10;100880.16;;;17.90;50.12
15308;BME280;7755;52.208;6.964;2022-09-03T00:27:19;100883.19;;;17.88;50.13
15308;BME280;7755;52.208;6.964;2022-09-03T00:31:27;100881.28;;;17.84;50.21
15308;BME280;7755;52.208;6.964;2022-09-03T00:35:40;100884.06;;;17.79;50.46
15308;BME280;7755;52.208;6.964;2022-09-03T00:39:45;100880.53;;;17.73;50.48
15308;BME280;7755;52.208;6.964;2022-09-03T00:44:01;100889.34;;;17.65;50.79
15308;BME280;7755;52.208;6.964;2022-09-03T00:48:20;100894.59;;;17.61;50.83
15308;BME280;7755;52.208;6.964;2022-09-03T00:52:37;100891.28;;;17.59;50.89
15308;BME280;7755;52.208;6.964;2022-09-03T00:56:47;100894.63;;;17.51;51.04
15308;BME280;7755;52.208;6.964;2022-09-03T01:00:53;100887.22;;;17.52;51.34
15308;BME280;7755;52.208;6.964;2022-09-03T01:05:02;100893.53;;;17.47;51.70
15308;BME280;7755;52.208;6.964;2022-09-03T01:09:19;100886.16;;;17.42;51.70
15308;BME280;7755;52.208;6.964;2022-09-03T01:13:28;100879.56;;;17.38;51.57
15308;BME280;7755;52.208;6.964;2022-09-03T01:17:43;100883.72;;;17.31;51.98
15308;BME280;7755;52.208;6.964;2022-09-03T01:22:02;100878.81;;;17.28;52.25
15308;BME280;7755;52.208;6.964;2022-09-03T01:26:20;100887.06;;;17.23;52.58
15308;BME280;7755;52.208;6.964;2022-09-03T01:30:32;100888.19;;;17.11;52.83
15308;BME280;7755;52.208;6.964;2022-09-03T01:34:46;100891.78;;;17.07;53.08
15308;BME280;7755;52.208;6.964;2022-09-03T01:38:56;100886.56;;;17.05;52.93
15308;BME280;7755;52.208;6.964;2022-09-03T01:43:16;100888.50;;;17.00;53.29
15308;BME280;7755;52.208;6.964;2022-09-03T01:47:33;100886.59;;;17.00;53.35
15308;BME280;7755;52.208;6.964;2022-09-03T01:51:39;100875.91;;;16.94;53.54
15308;BME280;7755;52.208;6.964;2022-09-03T01:55:51;100882.75;;;16.91;53.73
15308;BME280;7755;52.208;6.964;2022-09-03T01:59:58;100890.75;;;16.87;53.99
15308;BME280;7755;52.208;6.964;2022-09-03T02:04:16;100886.63;;;16.85;54.03
15308;BME280;7755;52.208;6.964;2022-09-03T02:08:19;100882.50;;;16.82;54.12
15308;BME280;7755;52.208;6.964;2022-09-03T02:12:21;100880.88;;;16.76;54.40
15308;BME280;7755;52.208;6.964;2022-09-03T02:16:27;100890.75;;;16.67;54.87
15308;BME280;7755;52.208;6.964;2022-09-03T02:20:33;100883.59;;;16.66;54.91
15308;BME280;7755;52.208;6.964;2022-09-03T02:24:37;100886.63;;;16.59;55.03
15308;BME280;7755;52.208;6.964;2022-09-03T02:28:39;100883.63;;;16.61;55.27
15308;BME280;7755;52.208;6.964;2022-09-03T02:32:41;100889.09;;;16.56;55.61
15308;BME280;7755;52.208;6.964;2022-09-03T02:36:46;100885.28;;;16.47;55.96
15308;BME280;7755;52.208;6.964;2022-09-03T02:40:48;100893.22;;;16.43;56.38
15308;BME280;7755;52.208;6.964;2022-09-03T02:44:52;100884.72;;;16.40;56.58
15308;BME280;7755;52.208;6.964;2022-09-03T02:48:57;100885.53;;;16.35;56.78
15308;BME280;7755;52.208;6.964;2022-09-03T02:53:00;100885.53;;;16.30;56.94
15308;BME280;7755;52.208;6.964;2022-09-03T02:57:02;100879.50;;;16.28;57.13
15308;BME280;7755;52.208;6.964;2022-09-03T03:01:05;100877.59;;;16.23;57.27
15308;BME280;7755;52.208;6.964;2022-09-03T03:05:08;100879.78;;;16.16;57.78
15308;BME280;7755;52.208;6.964;2022-09-03T03:09:17;100879.50;;;16.07;58.04
15308;BME280;7755;52.208;6.964;2022-09-03T03:13:19;100872.06;;;15.98;58.38
15308;BME280;7755;52.208;6.964;2022-09-03T03:17:21;100870.97;;;15.94;58.80
15308;BME280;7755;52.208;6.964;2022-09-03T03:21:23;100865.19;;;15.90;58.81
15308;BME280;7755;52.208;6.964;2022-09-03T03:25:26;100864.13;;;15.86;58.94
15308;BME280;7755;52.208;6.964;2022-09-03T03:29:28;100868.50;;;15.87;59.11
15308;BME280;7755;52.208;6.964;2022-09-03T03:33:30;100864.38;;;15.79;59.22
15308;BME280;7755;52.208;6.964;2022-09-03T03:37:32;100858.31;;;15.77;59.42
15308;BME280;7755;52.208;6.964;2022-09-03T03:41:36;100869.84;;;15.74;59.50
15308;BME280;7755;52.208;6.964;2022-09-03T03:45:38;100871.22;;;15.72;59.58
15308;BME280;7755;52.208;6.964;2022-09-03T03:49:40;100860.78;;;15.69;59.65
15308;BME280;7755;52.208;6.964;2022-09-03T03:53:42;100867.06;;;15.64;60.06
15308;BME280;7755;52.208;6.964;2022-09-03T03:57:47;100861.59;;;15.64;60.34
15308;BME280;7755;52.208;6.964;2022-09-03T04:01:49;100861.88;;;15.63;60.30
15308;BME280;7755;52.208;6.964;2022-09-03T04:05:55;100862.38;;;15.60;60.51
15308;BME280;7755;52.208;6.964;2022-09-03T04:09:56;100861.25;;;15.55;60.64
15308;BME280;7755;52.208;6.964;2022-09-03T04:14:03;100856.84;;;15.49;60.93
15308;BME280;7755;52.208;6.964;2022-09-03T04:18:05;100862.06;;;15.51;60.91
15308;BME280;7755;52.208;6.964;2022-09-03T04:22:07;100854.66;;;15.46;61.12
15308;BME280;7755;52.208;6.964;2022-09-03T04:26:12;100859.56;;;15.44;61.36
15308;BME280;7755;52.208;6.964;2022-09-03T04:30:15;100855.50;;;15.47;61.40
15308;BME280;7755;52.208;6.964;2022-09-03T04:34:17;100859.31;;;15.41;61.43
15308;BME280;7755;52.208;6.964;2022-09-03T04:38:19;100855.19;;;15.38;61.48
15308;BME280;7755;52.208;6.964;2022-09-03T04:42:21;100860.69;;;15.38;61.90
15308;BME280;7755;52.208;6.964;2022-09-03T04:46:26;100856.28;;;15.32;62.19
15308;BME280;7755;52.208;6.964;2022-09-03T04:50:32;100851.59;;;15.27;62.74
15308;BME280;7755;52.208;6.964;2022-09-03T04:54:35;100852.69;;;15.26;62.67
15308;BME280;7755;52.208;6.964;2022-09-03T04:58:36;100863.91;;;15.25;62.67
15308;BME280;7755;52.208;6.964;2022-09-03T05:02:40;100858.97;;;15.22;62.63
15308;BME280;7755;52.208;6.964;2022-09-03T05:06:41;100852.38;;;15.23;62.85
15308;BME280;7755;52.208;6.964;2022-09-03T05:10:44;100849.63;;;15.23;63.02
15308;BME280;7755;52.208;6.964;2022-09-03T05:14:46;100847.19;;;15.26;62.85
15308;BME280;7755;52.208;6.964;2022-09-03T05:18:53;100847.47;;;15.25;63.27
15308;BME280;7755;52.208;6.964;2022-09-03T05:22:56;100852.97;;;15.25;63.50
15308;BME280;7755;52.208;6.964;2022-09-03T05:27:02;100841.72;;;15.26;63.37
15308;BME280;7755;52.208;6.964;2022-09-03T05:31:05;100843.09;;;15.29;63.78
15308;BME280;7755;52.208;6.964;2022-09-03T05:35:08;100847.47;;;15.30;63.62
15308;BME280;7755;52.208;6.964;2022-09-03T05:39:11;100840.94;;;15.31;64.02
15308;BME280;7755;52.208;6.964;2022-09-03T05:43:13;100840.38;;;15.34;63.81
15308;BME280;7755;52.208;6.964;2022-09-03T05:47:16;100854.91;;;15.40;63.85
15308;BME280;7755;52.208;6.964;2022-09-03T05:51:20;100852.44;;;15.43;63.83
15308;BME280;7755;52.208;6.964;2022-09-03T05:55:21;100855.22;;;15.48;63.84
15308;BME280;7755;52.208;6.964;2022-09-03T05:59:24;100851.69;;;15.53;63.66
15308;BME280;7755;52.208;6.964;2022-09-03T06:03:26;100854.13;;;15.54;63.46
15308;BME280;7755;52.208;6.964;2022-09-03T06:07:29;100852.53;;;15.64;63.65
15308;BME280;7755;52.208;6.964;2022-09-03T06:11:33;100859.41;;;15.66;63.56
15308;BME280;7755;52.208;6.964;2022-09-03T06:15:35;100856.41;;;15.73;63.49
15308;BME280;7755;52.208;6.964;2022-09-03T06:19:37;100862.16;;;15.76;63.55
15308;BME280;7755;52.208;6.964;2022-09-03T06:23:41;100861.88;;;15.78;63.36
15308;BME280;7755;52.208;6.964;2022-09-03T06:27:43;100863.84;;;15.88;63.18
15308;BME280;7755;52.208;6.964;2022-09-03T06:31:45;100857.81;;;15.96;62.85
15308;BME280;7755;52.208;6.964;2022-09-03T06:35:47;100867.16;;;16.10;62.97
15308;BME280;7755;52.208;6.964;2022-09-03T06:39:54;100855.91;;;16.17;62.87
15308;BME280;7755;52.208;6.964;2022-09-03T06:43:57;100857.03;;;16.26;61.72
15308;BME280;7755;52.208;6.964;2022-09-03T06:48:02;100858.66;;;16.42;62.07
15308;BME280;7755;52.208;6.964;2022-09-03T06:52:04;100852.31;;;16.52;61.30
15308;BME280;7755;52.208;6.964;2022-09-03T06:56:10;100849.56;;;16.67;61.19
15308;BME280;7755;52.208;6.964;2022-09-03T07:00:13;100856.69;;;16.83;61.41
15308;BME280;7755;52.208;6.964;2022-09-03T07:04:16;100852.53;;;17.01;60.36
15308;BME280;7755;52.208;6.964;2022-09-03T07:08:19;100867.78;;;17.33;59.35
15308;BME280;7755;52.208;6.964;2022-09-03T07:12:23;100861.56;;;17.71;58.49
15308;BME280;7755;52.208;6.964;2022-09-03T07:16:27;100858.72;;;18.21;56.45
15308;BME280;7755;52.208;6.964;2022-09-03T07:20:29;100854.47;;;18.68;55.15
15308;BME280;7755;52.208;6.964;2022-09-03T07:24:31;100851.94;;;19.24;54.38
15308;BME280;7755;52.208;6.964;2022-09-03T07:28:36;100851.56;;;19.74;52.85
15308;BME280;7755;52.208;6.964;2022-09-03T07:32:38;100843.16;;;20.16;51.53
15308;BME280;7755;52.208;6.964;2022-09-03T07:36:43;100850.50;;;20.40;49.27
15308;BME280;7755;52.208;6.964;2022-09-03T07:40:46;100853.47;;;20.76;48.74
15308;BME280;7755;52.208;6.964;2022-09-03T07:44:49;100839.25;;;21.10;47.34
15308;BME280;7755;52.208;6.964;2022-09-03T07:48:52;100841.28;;;21.46;47.07
15308;BME280;7755;52.208;6.964;2022-09-03T07:52:56;100848.16;;;21.85;46.39
15308;BME280;7755;52.208;6.964;2022-09-03T07:56:59;100843.94;;;22.23;44.98
15308;BME280;7755;52.208;6.964;2022-09-03T08:01:05;100845.09;;;22.53;43.97
15308;BME280;7755;52.208;6.964;2022-09-03T08:05:08;100849.94;;;22.70;43.55
15308;BME280;7755;52.208;6.964;2022-09-03T08:09:11;100840.44;;;22.94;42.12
15308;BME280;7755;52.208;6.964;2022-09-03T08:13:15;100842.63;;;23.14;42.55
15308;BME280;7755;52.208;6.964;2022-09-03T08:17:19;100838.28;;;23.39;42.65
15308;BME280;7755;52.208;6.964;2022-09-03T08:21:21;100850.94;;;23.71;42.31
15308;BME280;7755;52.208;6.964;2022-09-03T08:25:24;100836.06;;;24.02;41.02
15308;BME280;7755;52.208;6.964;2022-09-03T08:29:27;100842.22;;;24.24;40.58
15308;BME280;7755;52.208;6.964;2022-09-03T08:33:30;100845.34;;;24.49;39.92
15308;BME280;7755;52.208;6.964;2022-09-03T08:37:38;100836.53;;;24.85;39.84
15308;BME280;7755;52.208;6.964;2022-09-03T08:41:52;100844.44;;;25.21;38.50
15308;BME280;7755;52.208;6.964;2022-09-03T08:45:59;100839.63;;;25.30;37.91
15308;BME280;7755;52.208;6.964;2022-09-03T08:50:08;100843.41;;;25.55;38.36
15308;BME280;7755;52.208;6.964;2022-09-03T08:54:12;100844.25;;;25.77;37.26
15308;BME280;7755;52.208;6.964;2022-09-03T08:58:15;100842.25;;;25.98;36.84
15308;BME280;7755;52.208;6.964;2022-09-03T09:02:25;100837.63;;;26.23;36.13
15308;BME280;7755;52.208;6.964;2022-09-03T09:06:39;100835.75;;;26.27;35.76
15308;BME280;7755;52.208;6.964;2022-09-03T09:10:46;100833.19;;;26.43;36.37
15308;BME280;7755;52.208;6.964;2022-09-03T09:15:01;100831.13;;;26.64;35.44
15308;BME280;7755;52.208;6.964;2022-09-03T09:19:23;100827.66;;;26.80;34.96
15308;BME280;7755;52.208;6.964;2022-09-03T09:23:35;100829.09;;;27.10;34.09
15308;BME280;7755;52.208;6.964;2022-09-03T09:27:45;100826.63;;;27.45;34.15
15308;BME280;7755;52.208;6.964;2022-09-03T09:31:52;100822.50;;;27.67;33.46
15308;BME280;7755;52.208;6.964;2022-09-03T09:35:53;100819.75;;;27.95;33.15
15308;BME280;7755;52.208;6.964;2022-09-03T09:39:59;100823.56;;;28.03;32.94
15308;BME280;7755;52.208;6.964;2022-09-03T09:44:03;100806.56;;;28.24;32.66
15308;BME280;7755;52.208;6.964;2022-09-03T09:48:21;100802.66;;;28.41;32.05
15308;BME280;7755;52.208;6.964;2022-09-03T09:52:27;100801.97;;;28.60;31.54
15308;BME280;7755;52.208;6.964;2022-09-03T09:56:32;100815.22;;;28.78;31.44
15308;BME280;7755;52.208;6.964;2022-09-03T10:00:34;100803.25;;;28.94;31.32
15308;BME280;7755;52.208;6.964;2022-09-03T10:04:37;100804.94;;;28.98;31.11
15308;BME280;7755;52.208;6.964;2022-09-03T10:08:39;100800.69;;;29.20;31.00
15308;BME280;7755;52.208;6.964;2022-09-03T10:12:49;100796.81;;;29.09;29.94
15308;BME280;7755;52.208;6.964;2022-09-03T10:17:03;100790.44;;;29.28;30.96
15308;BME280;7755;52.208;6.964;2022-09-03T10:21:10;100796.66;;;29.37;30.54
15308;BME280;7755;52.208;6.964;2022-09-03T10:25:15;100799.72;;;29.32;30.59
15308;BME280;7755;52.208;6.964;2022-09-03T10:29:21;100801.84;;;29.19;30.08
15308;BME280;7755;52.208;6.964;2022-09-03T10:33:26;100788.47;;;29.13;30.32
15308;BME280;7755;52.208;6.964;2022-09-03T10:37:36;100805.31;;;29.48;30.31
15308;BME280;7755;52.208;6.964;2022-09-03T10:41:47;100797.63;;;29.60;30.32
15308;BME280;7755;52.208;6.964;2022-09-03T10:46:01;100790.81;;;29.61;29.21
15308;BME280;7755;52.208;6.964;2022-09-03T10:50:10;100786.38;;;29.80;30.22
15308;BME280;7755;52.208;6.964;2022-09-03T10:54:30;100784.88;;;30.05;30.29
15308;BME280;7755;52.208;6.964;2022-09-03T10:58:50;100791.19;;;30.18;28.93
15308;BME280;7755;52.208;6.964;2022-09-03T11:03:21;100776.59;;;30.32;28.75
15308;BME280;7755;52.208;6.964;2022-09-03T11:07:31;100782.47;;;30.46;28.98
15308;BME280;7755;52.208;6.964;2022-09-03T11:11:40;100794.28;;;30.55;28.49
15308;BME280;7755;52.208;6.964;2022-09-03T11:15:47;100784.28;;;30.58;28.89
15308;BME280;7755;52.208;6.964;2022-09-03T11:19:56;100777.84;;;30.34;28.08
15308;BME280;7755;52.208;6.964;2022-09-03T11:24:06;100769.63;;;30.45;28.15
15308;BME280;7755;52.208;6.964;2022-09-03T11:28:17;100760.28;;;30.37;27.90
15308;BME280;7755;52.208;6.964;2022-09-03T11:32:27;100764.72;;;30.38;28.43
15308;BME280;7755;52.208;6.964;2022-09-03T11:36:33;100765.84;;;30.57;27.88
15308;BME280;7755;52.208;6.964;2022-09-03T11:40:37;100758.53;;;30.75;27.81
15308;BME280;7755;52.208;6.964;2022-09-03T11:44:41;100760.59;;;30.78;27.99
15308;BME280;7755;52.208;6.964;2022-09-03T11:48:44;100755.84;;;30.82;27.66
15308;BME280;7755;52.208;6.964;2022-09-03T11:52:49;100747.59;;;30.93;27.46
15308;BME280;7755;52.208;6.964;2022-09-03T11:57:05;100744.94;;;31.04;28.07
15308;BME280;7755;52.208;6.964;2022-09-03T12:01:11;100742.59;;;31.36;26.90
15308;BME280;7755;52.208;6.964;2022-09-03T12:05:20;100749.28;;;31.24;27.67
15308;BME280;7755;52.208;6.964;2022-09-03T12:09:47;100746.34;;;30.90;27.57
15308;BME280;7755;52.208;6.964;2022-09-03T12:13:59;100749.38;;;31.05;28.22
15308;BME280;7755;52.208;6.964;2022-09-03T12:18:06;100753.63;;;31.21;27.97
15308;BME280;7755;52.208;6.964;2022-09-03T12:22:22;100753.00;;;31.32;27.57
15308;BME280;7755;52.208;6.964;2022-09-03T12:26:26;100755.31;;;31.26;27.22
15308;BME280;7755;52.208;6.964;2022-09-03T12:30:28;100760.44;;;31.20;27.22
15308;BME280;7755;52.208;6.964;2022-09-03T12:34:31;100743.41;;;31.36;27.12
15308;BME280;7755;52.208;6.964;2022-09-03T12:38:33;100745.63;;;31.50;27.47
15308;BME280;7755;52.208;6.964;2022-09-03T12:42:36;100731.94;;;31.48;27.28
15308;BME280;7755;52.208;6.964;2022-09-03T12:46:38;100735.28;;;31.58;27.37
15308;BME280;7755;52.208;6.964;2022-09-03T12:50:41;100731.44;;;31.43;27.46
15308;BME280;7755;52.208;6.964;2022-09-03T12:54:49;100729.31;;;31.33;27.21
15308;BME280;7755;52.208;6.964;2022-09-03T12:58:56;100737.91;;;31.17;27.68
15308;BME280;7755;52.208;6.964;2022-09-03T13:03:03;100723.53;;;31.22;27.63
15308;BME280;7755;52.208;6.964;2022-09-03T13:07:11;100721.09;;;31.20;27.61
15308;BME280;7755;52.208;6.964;2022-09-03T13:11:15;100728.59;;;31.39;27.63
15308;BME280;7755;52.208;6.964;2022-09-03T13:15:22;100722.59;;;31.41;27.76
15308;BME280;7755;52.208;6.964;2022-09-03T13:19:30;100726.28;;;31.45;28.24
15308;BME280;7755;52.208;6.964;2022-09-03T13:23:54;100719.47;;;31.46;28.01
15308;BME280;7755;52.208;6.964;2022-09-03T13:28:03;100721.75;;;31.37;27.75
15308;BME280;7755;52.208;6.964;2022-09-03T13:32:19;100716.19;;;31.40;28.15
15308;BME280;7755;52.208;6.964;2022-09-03T13:36:27;100720.59;;;31.41;28.22
15308;BME280;7755;52.208;6.964;2022-09-03T13:40:35;100714.41;;;31.29;27.89
15308;BME280;7755;52.208;6.964;2022-09-03T13:44:41;100713.34;;;31.37;28.23
15308;BME280;7755;52.208;6.964;2022-09-03T13:48:47;100707.44;;;31.49;28.61
15308;BME280;7755;52.208;6.964;2022-09-03T13:53:14;100705.34;;;31.42;27.90
15308;BME280;7755;52.208;6.964;2022-09-03T13:57:26;100710.75;;;30.98;28.89
15308;BME280;7755;52.208;6.964;2022-09-03T14:01:42;100702.13;;;31.10;28.50
15308;BME280;7755;52.208;6.964;2022-09-03T14:06:02;100704.91;;;31.10;28.50
15308;BME280;7755;52.208;6.964;2022-09-03T14:10:18;100709.28;;;30.81;29.56
15308;BME280;7755;52.208;6.964;2022-09-03T14:14:33;100702.88;;;30.81;29.22
15308;BME280;7755;52.208;6.964;2022-09-03T14:18:43;100707.38;;;30.85;29.14
15308;BME280;7755;52.208;6.964;2022-09-03T14:22:52;100704.38;;;30.75;28.87
15308;BME280;7755;52.208;6.964;2022-09-03T14:26:59;100694.72;;;30.72;29.17
15308;BME280;7755;52.208;6.964;2022-09-03T14:31:11;100697.72;;;30.60;29.33
15308;BME280;7755;52.208;6.964;2022-09-03T14:35:25;100700.78;;;30.51;29.58
15308;BME280;7755;52.208;6.964;2022-09-03T14:39:37;100692.47;;;30.58;29.41
15308;BME280;7755;52.208;6.964;2022-09-03T14:44:14;100713.84;;;30.17;29.43
15308;BME280;7755;52.208;6.964;2022-09-03T14:48:38;100712.88;;;29.67;29.87
15308;BME280;7755;52.208;6.964;2022-09-03T14:52:58;100716.53;;;29.52;30.67
15308;BME280;7755;52.208;6.964;2022-09-03T14:57:20;100716.91;;;29.70;31.05
15308;BME280;7755;52.208;6.964;2022-09-03T15:01:32;100719.19;;;29.83;30.69
15308;BME280;7755;52.208;6.964;2022-09-03T15:05:43;100714.91;;;29.89;30.24
15308;BME280;7755;52.208;6.964;2022-09-03T15:09:54;100720.13;;;29.91;30.93
15308;BME280;7755;52.208;6.964;2022-09-03T15:14:08;100716.63;;;29.75;30.81
15308;BME280;7755;52.208;6.964;2022-09-03T15:18:21;100718.25;;;29.56;30.81
15308;BME280;7755;52.208;6.964;2022-09-03T15:22:36;100722.63;;;29.54;30.79
15308;BME280;7755;52.208;6.964;2022-09-03T15:26:55;100713.50;;;29.41;30.88
15308;BME280;7755;52.208;6.964;2022-09-03T15:31:13;100711.22;;;29.27;31.26
15308;BME280;7755;52.208;6.964;2022-09-03T15:35:35;100712.75;;;29.25;31.39
15308;BME280;7755;52.208;6.964;2022-09-03T15:39:43;100712.69;;;29.21;31.25
15308;BME280;7755;52.208;6.964;2022-09-03T15:43:48;100715.91;;;29.23;31.56
15308;BME280;7755;52.208;6.964;2022-09-03T15:47:55;100712.53;;;29.14;31.54
15308;BME280;7755;52.208;6.964;2022-09-03T15:52:09;100713.72;;;29.13;31.64
15308;BME280;7755;52.208;6.964;2022-09-03T15:56:23;100717.31;;;29.14;31.56
15308;BME280;7755;52.208;6.964;2022-09-03T16:00:28;100705.59;;;29.08;31.65
15308;BME280;7755;52.208;6.964;2022-09-03T16:04:41;100703.50;;;29.05;31.99
15308;BME280;7755;52.208;6.964;2022-09-03T16:08:50;100709.88;;;28.86;31.62
15308;BME280;7755;52.208;6.964;2022-09-03T16:13:00;100715.56;;;28.74;31.53
15308;BME280;7755;52.208;6.964;2022-09-03T16:17:07;100718.28;;;28.70;32.25
15308;BME280;7755;52.208;6.964;2022-09-03T16:21:28;100720.00;;;28.75;32.33
15308;BME280;7755;52.208;6.964;2022-09-03T16:25:34;100719.38;;;28.66;31.99
15308;BME280;7755;52.208;6.964;2022-09-03T16:29:54;100719.28;;;28.62;32.60
15308;BME280;7755;52.208;6.964;2022-09-03T16:34:01;100726.31;;;28.56;32.21
15308;BME280;7755;52.208;6.964;2022-09-03T16:38:20;100719.09;;;28.55;32.43
15308;BME280;7755;52.208;6.964;2022-09-03T16:42:29;100721.00;;;28.35;32.48
15308;BME280;7755;52.208;6.964;2022-09-03T16:46:39;100721.16;;;28.26;32.84
15308;BME280;7755;52.208;6.964;2022-09-03T16:51:03;100730.97;;;28.20;33.17
15308;BME280;7755;52.208;6.964;2022-09-03T16:55:18;100732.41;;;27.98;33.30
15308;BME280;7755;52.208;6.964;2022-09-03T16:59:44;100730.63;;;27.78;33.73
15308;BME280;7755;52.208;6.964;2022-09-03T17:04:22;100724.94;;;27.62;33.95
15308;BME280;7755;52.208;6.964;2022-09-03T17:08:35;100738.50;;;27.48;34.69
15308;BME280;7755;52.208;6.964;2022-09-03T17:12:48;100738.69;;;27.27;35.13
15308;BME280;7755;52.208;6.964;2022-09-03T17:17:03;100745.44;;;27.02;36.11
15308;BME280;7755;52.208;6.964;2022-09-03T17:21:16;100739.31;;;26.84;36.80
15308;BME280;7755;52.208;6.964;2022-09-03T17:25:27;100742.19;;;26.75;36.92
15308;BME280;7755;52.208;6.964;2022-09-03T17:29:51;100743.25;;;26.58;37.76
15308;BME280;7755;52.208;6.964;2022-09-03T17:34:04;100746.59;;;26.39;37.89
15308;BME280;7755;52.208;6.964;2022-09-03T17:38:29;100754.44;;;26.25;38.04
15308;BME280;7755;52.208;6.964;2022-09-03T17:42:48;100755.00;;;26.19;38.75
15308;BME280;7755;52.208;6.964;2022-09-03T17:47:04;100760.34;;;26.11;38.56
15308;BME280;7755;52.208;6.964;2022-09-03T17:51:11;100761.25;;;26.03;39.45
15308;BME280;7755;52.208;6.964;2022-09-03T17:55:27;100753.41;;;25.84;39.23
15308;BME280;7755;52.208;6.964;2022-09-03T17:59:35;100776.44;;;25.73;39.67
15308;BME280;7755;52.208;6.964;2022-09-03T18:03:50;100775.41;;;25.56;39.94
15308;BME280;7755;52.208;6.964;2022-09-03T18:07:57;100785.47;;;25.49;39.95
15308;BME280;7755;52.208;6.964;2022-09-03T18:12:08;100790.78;;;25.33;40.51
15308;BME280;7755;52.208;6.964;2022-09-03T18:16:17;100798.41;;;25.24;40.52
15308;BME280;7755;52.208;6.964;2022-09-03T18:20:24;100799.28;;;25.16;41.20
15308;BME280;7755;52.208;6.964;2022-09-03T18:24:48;100801.63;;;25.05;41.32
15308;BME280;7755;52.208;6.964;2022-09-03T18:29:12;100811.03;;;24.83;41.42
15308;BME280;7755;52.208;6.964;2022-09-03T18:33:34;100828.09;;;24.73;41.94
15308;BME280;7755;52.208;6.964;2022-09-03T18:37:56;100829.94;;;24.51;42.20
15308;BME280;7755;52.208;6.964;2022-09-03T18:42:20;100846.81;;;24.38;42.54
15308;BME280;7755;52.208;6.964;2022-09-03T18:46:45;100846.19;;;24.15;42.63
15308;BME280;7755;52.208;6.964;2022-09-03T18:51:15;100851.09;;;24.01;42.76
15308;BME280;7755;52.208;6.964;2022-09-03T18:55:47;100855.66;;;23.88;42.79
15308;BME280;7755;52.208;6.964;2022-09-03T19:00:11;100852.56;;;23.72;43.11
15308;BME280;7755;52.208;6.964;2022-09-03T19:04:44;100860.06;;;23.63;42.89
15308;BME280;7755;52.208;6.964;2022-09-03T19:09:30;100857.72;;;23.56;42.85
15308;BME280;7755;52.208;6.964;2022-09-03T19:13:58;100867.53;;;23.45;42.90
15308;BME280;7755;52.208;6.964;2022-09-03T19:18:34;100865.50;;;23.37;43.14
15308;BME280;7755;52.208;6.964;2022-09-03T19:23:03;100864.81;;;23.23;42.95
15308;BME280;7755;52.208;6.964;2022-09-03T19:27:28;100875.94;;;23.23;43.17
15308;BME280;7755;52.208;6.964;2022-09-03T19:31:54;100875.09;;;23.22;43.58
15308;BME280;7755;52.208;6.964;2022-09-03T19:36:18;100887.00;;;23.14;43.36
15308;BME280;7755;52.208;6.964;2022-09-03T19:40:51;100890.09;;;23.12;43.77
15308;BME280;7755;52.208;6.964;2022-09-03T19:45:18;100902.78;;;23.05;43.87
15308;BME280;7755;52.208;6.964;2022-09-03T19:49:50;100899.34;;;22.99;44.33
15308;BME280;7755;52.208;6.964;2022-09-03T19:54:18;100897.03;;;22.93;44.10
15308;BME280;7755;52.208;6.964;2022-09-03T19:58:47;100906.88;;;22.76;44.40
15308;BME280;7755;52.208;6.964;2022-09-03T20:03:10;100904.84;;;22.68;44.57
15308;BME280;7755;52.208;6.964;2022-09-03T20:07:33;100898.94;;;22.61;45.03
15308;BME280;7755;52.208;6.964;2022-09-03T20:11:55;100918.78;;;22.54;45.30
15308;BME280;7755;52.208;6.964;2022-09-03T20:16:01;100926.72;;;22.47;45.79
15308;BME280;7755;52.208;6.964;2022-09-03T20:20:14;100922.56;;;22.36;45.90
15308;BME280;7755;52.208;6.964;2022-09-03T20:24:28;100933.41;;;22.24;46.24
15308;BME280;7755;52.208;6.964;2022-09-03T20:28:47;100929.72;;;22.15;46.83
15308;BME280;7755;52.208;6.964;2022-09-03T20:33:06;100943.13;;;22.07;47.29
15308;BME280;7755;52.208;6.964;2022-09-03T20:37:20;100945.94;;;21.94;47.43
15308;BME280;7755;52.208;6.964;2022-09-03T20:41:36;100949.44;;;21.86;47.63
15308;BME280;7755;52.208;6.964;2022-09-03T20:45:57;100951.63;;;21.75;48.07
15308;BME280;7755;52.208;6.964;2022-09-03T20:50:17;100948.16;;;21.69;48.21
15308;BME280;7755;52.208;6.964;2022-09-03T20:54:28;100957.69;;;21.63;48.37
15308;BME280;7755;52.208;6.964;2022-09-03T20:58:38;100955.13;;;21.53;48.61
15308;BME280;7755;52.208;6.964;2022-09-03T21:03:02;100965.78;;;21.46;49.11
15308;BME280;7755;52.208;6.964;2022-09-03T21:07:13;100965.69;;;21.37;49.38
15308;BME280;7755;52.208;6.964;2022-09-03T21:11:21;100971.63;;;21.31;49.76
15308;BME280;7755;52.208;6.964;2022-09-03T21:15:37;100967.09;;;21.21;49.94
15308;BME280;7755;52.208;6.964;2022-09-03T21:19:52;100974.66;;;21.15;50.26
15308;BME280;7755;52.208;6.964;2022-09-03T21:24:03;100965.31;;;21.11;50.12
15308;BME280;7755;52.208;6.964;2022-09-03T21:28:11;100957.94;;;21.07;50.91
15308;BME280;7755;52.208;6.964;2022-09-03T21:32:19;100969.41;;;21.00;50.93
15308;BME280;7755;52.208;6.964;2022-09-03T21:36:27;100977.03;;;20.89;51.32
15308;BME280;7755;52.208;6.964;2022-09-03T21:40:33;100975.78;;;20.82;51.36
15308;BME280;7755;52.208;6.964;2022-09-03T21:44:51;100972.59;;;20.75;51.88
15308;BME280;7755;52.208;6.964;2022-09-03T21:48:58;100992.34;;;20.68;52.11
15308;BME280;7755;52.208;6.964;2022-09-03T21:53:06;100986.97;;;20.58;52.38
15308;BME280;7755;52.208;6.964;2022-09-03T21:57:19;100993.09;;;20.55;52.87
15308;BME280;7755;52.208;6.964;2022-09-03T22:01:24;100994.28;;;20.49;53.42
15308;BME280;7755;52.208;6.964;2022-09-03T22:05:39;100991.06;;;20.41;53.30